Time;durP1;ratioP1;P1;durP2;ratioP2;P2;SDS_P1;SDS_P2;PMS_P1;PMS_P2;Temp;Humidity;BMP_temperature;BMP_pressure;BME280_temperature;BME280_humidity;BME280_pressure;Samples;Min_cycle;Max_cycle;Signal;HPM_P1;HPM_P2
2023/12/09 00:01:42;;;;;;;14.63;10.53;;;;;;;;;;6022561;29;20373;-68
2023/12/09 00:04:45;;;;;;;16.10;10.57;;;;;;;;;;6022796;29;20296;-68
2023/12/09 00:07:49;;;;;;;17.43;10.13;;;;;;;;;;6022862;29;20304;-68
2023/12/09 00:10:53;;;;;;;16.60;10.57;;;;;;;;;;6020178;29;20341;-68
2023/12/09 00:14:03;;;;;;;15.10;10.40;;;;;;;;;;6000622;29;20305;-68
2023/12/09 00:17:08;;;;;;;13.33;9.57;;;;;;;;;;5999730;29;20468;-69
2023/12/09 00:20:12;;;;;;;16.07;9.93;;;;;;;;;;6000301;29;20594;-68
2023/12/09 00:23:16;;;;;;;12.10;9.20;;;;;;;;;;6000644;29;20311;-68
2023/12/09 00:26:20;;;;;;;13.33;9.83;;;;;;;;;;6008127;29;20318;-68
2023/12/09 00:29:26;;;;;;;15.17;9.90;;;;;;;;;;6022584;29;20400;-68
2023/12/09 00:32:29;;;;;;;13.40;9.70;;;;;;;;;;6023042;29;20296;-68
2023/12/09 00:35:34;;;;;;;16.30;10.23;;;;;;;;;;6022495;29;20609;-68
2023/12/09 00:38:37;;;;;;;15.77;10.73;;;;;;;;;;6023017;29;20557;-68
2023/12/09 00:41:41;;;;;;;14.73;9.47;;;;;;;;;;6021436;29;20314;-69
2023/12/09 00:44:47;;;;;;;14.37;9.70;;;;;;;;;;6022005;29;20301;-68
2023/12/09 00:47:50;;;;;;;15.27;10.10;;;;;;;;;;6022506;29;20288;-68
2023/12/09 00:50:54;;;;;;;12.80;9.47;;;;;;;;;;6022567;29;20439;-69
2023/12/09 00:53:58;;;;;;;15.47;9.87;;;;;;;;;;6027017;29;20460;-69
2023/12/09 00:57:02;;;;;;;12.80;9.70;;;;;;;;;;6026580;29;20316;-69
2023/12/09 01:00:09;;;;;;;11.90;9.13;;;;;;;;;;6026504;29;20297;-68
2023/12/09 01:03:13;;;;;;;15.07;9.37;;;;;;;;;;6026924;29;20296;-69
2023/12/09 01:06:17;;;;;;;13.90;9.40;;;;;;;;;;6025027;29;20298;-69
2023/12/09 01:09:20;;;;;;;13.27;9.60;;;;;;;;;;6026406;29;20325;-69
2023/12/09 01:12:24;;;;;;;15.63;9.70;;;;;;;;;;6012888;29;20296;-69
2023/12/09 01:15:30;;;;;;;14.03;9.70;;;;;;;;;;6003252;29;20300;-68
2023/12/09 01:18:34;;;;;;;14.63;9.67;;;;;;;;;;6002667;29;20312;-68
2023/12/09 01:21:38;;;;;;;21.27;10.63;;;;;;;;;;6001739;29;20593;-68
2023/12/09 01:24:42;;;;;;;12.77;9.43;;;;;;;;;;6002163;29;20305;-69
2023/12/09 01:27:46;;;;;;;14.20;9.90;;;;;;;;;;6024921;29;20299;-68
2023/12/09 01:30:52;;;;;;;11.57;8.90;;;;;;;;;;6016820;29;20292;-68
2023/12/09 01:33:55;;;;;;;11.53;9.27;;;;;;;;;;6002289;29;20306;-68
2023/12/09 01:36:59;;;;;;;14.67;10.07;;;;;;;;;;6001900;29;20300;-69
2023/12/09 01:40:05;;;;;;;13.10;9.50;;;;;;;;;;6001408;29;20297;-68
2023/12/09 01:43:10;;;;;;;13.40;9.40;;;;;;;;;;6000844;29;20301;-69
2023/12/09 01:46:16;;;;;;;15.93;9.67;;;;;;;;;;6024981;29;20305;-69
2023/12/09 01:49:19;;;;;;;15.10;9.57;;;;;;;;;;6023892;29;20310;-69
2023/12/09 01:52:24;;;;;;;12.17;9.20;;;;;;;;;;6024195;29;20297;-68
2023/12/09 01:55:28;;;;;;;12.83;8.80;;;;;;;;;;6023774;29;20601;-68
2023/12/09 01:58:35;;;;;;;12.60;9.20;;;;;;;;;;6024388;29;20311;-68
2023/12/09 02:01:41;;;;;;;12.87;9.10;;;;;;;;;;6013102;29;20300;-68
2023/12/09 02:04:44;;;;;;;13.27;9.17;;;;;;;;;;6023692;29;20458;-68
2023/12/09 02:07:48;;;;;;;12.33;8.77;;;;;;;;;;6023671;29;20346;-68
2023/12/09 02:11:01;;;;;;;15.03;9.13;;;;;;;;;;6021504;29;20581;-69
2023/12/09 02:14:08;;;;;;;12.33;8.80;;;;;;;;;;6001028;29;20310;-68
2023/12/09 02:17:17;;;;;;;14.53;8.87;;;;;;;;;;6000280;29;20360;-68
2023/12/09 02:20:21;;;;;;;11.13;9.10;;;;;;;;;;6000625;29;20395;-69
2023/12/09 02:23:26;;;;;;;13.43;8.43;;;;;;;;;;6000906;29;20307;-68
2023/12/09 02:26:30;;;;;;;11.40;8.80;;;;;;;;;;6000700;29;20308;-69
2023/12/09 02:29:47;;;;;;;11.70;8.50;;;;;;;;;;6000317;29;20311;-68
2023/12/09 02:32:52;;;;;;;13.03;8.97;;;;;;;;;;5990768;29;20327;-69
2023/12/09 02:35:57;;;;;;;12.77;8.47;;;;;;;;;;5990837;29;20461;-68
2023/12/09 02:39:03;;;;;;;11.03;8.50;;;;;;;;;;6005935;29;20408;-69
2023/12/09 02:42:09;;;;;;;12.33;8.50;;;;;;;;;;6000277;29;20301;-67
2023/12/09 02:45:13;;;;;;;11.33;8.07;;;;;;;;;;6016586;29;20310;-68
2023/12/09 02:48:17;;;;;;;11.07;8.63;;;;;;;;;;6023103;29;20305;-68
2023/12/09 02:51:21;;;;;;;9.57;8.13;;;;;;;;;;6022414;29;20301;-68
2023/12/09 02:54:26;;;;;;;10.43;8.27;;;;;;;;;;6022632;29;20297;-68
2023/12/09 02:57:30;;;;;;;12.80;7.93;;;;;;;;;;6036880;29;20472;-68
2023/12/09 03:00:34;;;;;;;13.93;9.37;;;;;;;;;;6022202;29;20565;-68
2023/12/09 03:03:38;;;;;;;9.50;8.20;;;;;;;;;;6022596;29;20301;-68
2023/12/09 03:06:42;;;;;;;9.73;8.00;;;;;;;;;;6036262;29;20488;-68
2023/12/09 03:09:47;;;;;;;11.50;8.47;;;;;;;;;;6022188;29;20309;-69
2023/12/09 03:12:51;;;;;;;11.07;8.30;;;;;;;;;;6005853;29;20298;-69
2023/12/09 03:15:55;;;;;;;10.70;8.43;;;;;;;;;;5998573;29;20305;-68
2023/12/09 03:18:59;;;;;;;10.67;8.07;;;;;;;;;;5998822;29;20491;-68
2023/12/09 03:22:04;;;;;;;8.50;7.50;;;;;;;;;;5999075;29;20309;-68
2023/12/09 03:25:28;;;;;;;11.37;7.43;;;;;;;;;;5999157;29;20307;-68
2023/12/09 03:28:32;;;;;;;8.23;7.30;;;;;;;;;;5999801;29;20383;-68
2023/12/09 03:31:40;;;;;;;9.73;7.40;;;;;;;;;;5999255;29;20313;-68
2023/12/09 03:34:44;;;;;;;9.83;7.13;;;;;;;;;;5999375;29;20298;-68
2023/12/09 03:37:48;;;;;;;7.90;7.10;;;;;;;;;;6004999;29;20308;-68
2023/12/09 03:40:54;;;;;;;7.10;6.40;;;;;;;;;;5991789;29;20317;-68
2023/12/09 03:43:57;;;;;;;9.13;7.03;;;;;;;;;;6006928;29;20471;-68
2023/12/09 03:47:01;;;;;;;7.33;6.63;;;;;;;;;;6021281;29;20296;-68
2023/12/09 03:50:14;;;;;;;7.50;6.57;;;;;;;;;;6021854;29;20308;-68
2023/12/09 03:53:18;;;;;;;7.90;6.30;;;;;;;;;;6021642;29;20305;-69
2023/12/09 03:56:23;;;;;;;8.40;6.57;;;;;;;;;;6021339;29;20291;-68
2023/12/09 03:59:27;;;;;;;7.03;6.33;;;;;;;;;;6021216;29;20333;-69
2023/12/09 04:02:31;;;;;;;7.10;6.43;;;;;;;;;;6015947;29;20299;-68
2023/12/09 04:05:35;;;;;;;8.87;6.00;;;;;;;;;;6005257;29;20309;-69
2023/12/09 04:08:38;;;;;;;6.40;5.80;;;;;;;;;;6021248;29;20452;-68
2023/12/09 04:11:44;;;;;;;6.43;5.93;;;;;;;;;;6006210;29;20300;-70
2023/12/09 04:14:48;;;;;;;6.37;5.83;;;;;;;;;;5998957;29;20306;-68
2023/12/09 04:17:51;;;;;;;7.30;5.90;;;;;;;;;;6003926;29;20296;-68
2023/12/09 04:20:56;;;;;;;6.87;6.27;;;;;;;;;;6019644;29;20305;-68
2023/12/09 04:24:00;;;;;;;6.53;6.03;;;;;;;;;;6021106;29;20305;-68
2023/12/09 04:27:05;;;;;;;6.73;6.13;;;;;;;;;;6021204;29;20305;-68
2023/12/09 04:30:11;;;;;;;6.97;6.23;;;;;;;;;;6020847;29;20305;-68
2023/12/09 04:33:15;;;;;;;6.30;5.57;;;;;;;;;;6021130;29;20301;-68
2023/12/09 04:36:19;;;;;;;6.53;5.93;;;;;;;;;;6006059;29;20301;-69
2023/12/09 04:39:23;;;;;;;6.37;5.80;;;;;;;;;;5988260;29;20320;-68
2023/12/09 04:42:28;;;;;;;7.27;6.57;;;;;;;;;;6010259;29;20305;-68
2023/12/09 04:45:33;;;;;;;6.70;6.07;;;;;;;;;;6017855;29;20617;-68
2023/12/09 04:48:37;;;;;;;6.43;5.83;;;;;;;;;;6020662;29;20298;-68
2023/12/09 04:51:41;;;;;;;6.43;5.80;;;;;;;;;;6020919;29;20296;-68
2023/12/09 04:54:45;;;;;;;6.63;6.13;;;;;;;;;;6018444;29;20300;-69
2023/12/09 04:57:50;;;;;;;6.57;5.90;;;;;;;;;;6027309;29;20616;-68
2023/12/09 05:00:54;;;;;;;6.70;5.70;;;;;;;;;;6020837;29;20298;-68
2023/12/09 05:03:58;;;;;;;6.00;5.50;;;;;;;;;;6020073;29;20309;-68
2023/12/09 05:07:03;;;;;;;6.60;5.63;;;;;;;;;;6018607;29;20316;-68
2023/12/09 05:10:08;;;;;;;5.73;5.30;;;;;;;;;;6026924;29;20236;-68
2023/12/09 05:13:13;;;;;;;6.13;5.10;;;;;;;;;;5998213;29;20299;-69
2023/12/09 05:16:17;;;;;;;6.20;5.70;;;;;;;;;;5998390;29;20306;-68
2023/12/09 05:19:21;;;;;;;5.97;5.40;;;;;;;;;;6020439;29;20324;-69
2023/12/09 05:22:25;;;;;;;6.90;6.07;;;;;;;;;;6020388;29;20308;-68
2023/12/09 05:25:29;;;;;;;5.40;5.00;;;;;;;;;;6020783;29;20326;-68
2023/12/09 05:28:35;;;;;;;5.97;5.33;;;;;;;;;;6019964;29;20328;-67
2023/12/09 05:31:40;;;;;;;5.83;5.33;;;;;;;;;;6020651;29;20301;-68
2023/12/09 05:34:44;;;;;;;6.70;6.10;;;;;;;;;;6020128;29;20310;-68
2023/12/09 05:37:48;;;;;;;6.70;6.00;;;;;;;;;;6021791;29;20300;-69
2023/12/09 05:40:52;;;;;;;7.87;6.17;;;;;;;;;;6024905;29;20301;-69
2023/12/09 05:44:00;;;;;;;6.40;5.73;;;;;;;;;;6023763;29;20305;-68
2023/12/09 05:47:04;;;;;;;5.97;5.50;;;;;;;;;;6024389;29;20357;-68
2023/12/09 05:50:09;;;;;;;6.10;5.60;;;;;;;;;;6024075;29;20289;-69
2023/12/09 05:53:13;;;;;;;7.47;6.20;;;;;;;;;;6023797;29;20314;-68
2023/12/09 05:56:17;;;;;;;6.30;5.70;;;;;;;;;;6024540;29;20296;-68
2023/12/09 05:59:22;;;;;;;6.17;5.63;;;;;;;;;;6023798;29;20308;-69
2023/12/09 06:02:26;;;;;;;10.23;5.97;;;;;;;;;;6023561;29;20609;-68
2023/12/09 06:05:30;;;;;;;6.87;6.17;;;;;;;;;;6024115;29;20309;-68
2023/12/09 06:08:35;;;;;;;7.97;5.90;;;;;;;;;;6023762;29;20309;-68
2023/12/09 06:11:39;;;;;;;6.07;5.57;;;;;;;;;;6007003;29;20550;-68
2023/12/09 06:14:44;;;;;;;6.90;6.20;;;;;;;;;;6000529;29;20303;-68
2023/12/09 06:17:48;;;;;;;6.27;5.73;;;;;;;;;;6001031;29;20301;-69
2023/12/09 06:20:52;;;;;;;7.17;5.70;;;;;;;;;;6001088;29;20306;-68
2023/12/09 06:23:56;;;;;;;8.93;6.53;;;;;;;;;;6000465;29;20299;-69
2023/12/09 06:27:00;;;;;;;8.40;6.40;;;;;;;;;;6000980;29;20315;-69
2023/12/09 06:30:07;;;;;;;9.40;5.93;;;;;;;;;;6000096;29;20682;-66
2023/12/09 06:33:10;;;;;;;7.80;6.60;;;;;;;;;;6000068;29;20563;-69
2023/12/09 06:36:14;;;;;;;6.43;5.83;;;;;;;;;;6000899;29;20309;-69
2023/12/09 06:39:19;;;;;;;7.57;6.13;;;;;;;;;;6000109;29;20423;-69
2023/12/09 06:42:23;;;;;;;6.50;5.87;;;;;;;;;;6000157;29;20322;-68
2023/12/09 06:45:28;;;;;;;8.73;5.70;;;;;;;;;;6018839;29;20413;-68
2023/12/09 06:48:32;;;;;;;11.27;6.70;;;;;;;;;;6022269;29;20483;-68
2023/12/09 06:51:40;;;;;;;7.77;6.67;;;;;;;;;;6022375;29;20309;-68
2023/12/09 06:54:44;;;;;;;8.30;6.60;;;;;;;;;;6022194;29;20582;-68
2023/12/09 06:57:48;;;;;;;6.47;5.77;;;;;;;;;;6022086;29;20296;-68
2023/12/09 07:00:54;;;;;;;7.17;6.37;;;;;;;;;;6022609;29;20296;-68
2023/12/09 07:03:58;;;;;;;11.00;7.10;;;;;;;;;;6021455;29;20313;-68
2023/12/09 07:07:03;;;;;;;9.43;6.60;;;;;;;;;;6022383;29;20310;-68
2023/12/09 07:10:08;;;;;;;7.03;6.33;;;;;;;;;;6016259;29;20325;-68
2023/12/09 07:13:12;;;;;;;8.03;6.60;;;;;;;;;;5999414;29;20448;-68
2023/12/09 07:16:18;;;;;;;11.07;7.23;;;;;;;;;;5999961;29;20305;-68
2023/12/09 07:19:22;;;;;;;9.60;7.47;;;;;;;;;;5998707;29;20305;-68
2023/12/09 07:22:26;;;;;;;10.47;6.90;;;;;;;;;;5999289;29;20305;-68
2023/12/09 07:25:31;;;;;;;13.23;7.00;;;;;;;;;;5999314;29;20674;-68
2023/12/09 07:28:35;;;;;;;7.30;6.60;;;;;;;;;;5999094;29;20306;-68
2023/12/09 07:31:40;;;;;;;10.50;6.93;;;;;;;;;;5999313;29;20293;-67
2023/12/09 07:34:44;;;;;;;7.70;6.47;;;;;;;;;;5998730;29;20325;-66
2023/12/09 07:37:48;;;;;;;8.03;7.10;;;;;;;;;;5998787;29;20304;-67
2023/12/09 07:40:52;;;;;;;8.30;7.37;;;;;;;;;;5999153;29;20301;-67
2023/12/09 07:43:56;;;;;;;10.73;7.13;;;;;;;;;;6005510;29;20309;-67
2023/12/09 07:47:01;;;;;;;10.10;7.50;;;;;;;;;;6021364;29;20318;-66
2023/12/09 07:50:05;;;;;;;8.23;6.90;;;;;;;;;;6020344;29;20301;-67
2023/12/09 07:53:09;;;;;;;12.23;7.47;;;;;;;;;;6020707;29;20293;-67
2023/12/09 07:56:13;;;;;;;9.70;6.87;;;;;;;;;;6021261;29;20308;-68
2023/12/09 07:59:17;;;;;;;10.47;7.30;;;;;;;;;;6020482;29;20591;-67
2023/12/09 08:02:22;;;;;;;13.83;8.10;;;;;;;;;;6020549;29;20308;-67
2023/12/09 08:05:26;;;;;;;10.07;7.57;;;;;;;;;;6021135;29;20602;-69
2023/12/09 08:08:30;;;;;;;12.83;7.90;;;;;;;;;;6020692;29;20304;-67
2023/12/09 08:11:34;;;;;;;11.30;7.87;;;;;;;;;;6003459;29;20304;-67
2023/12/09 08:14:38;;;;;;;12.73;8.17;;;;;;;;;;6005013;29;20300;-67
2023/12/09 08:17:43;;;;;;;12.07;7.63;;;;;;;;;;5997656;29;20396;-68
2023/12/09 08:20:47;;;;;;;11.97;8.17;;;;;;;;;;5998180;29;20302;-67
2023/12/09 08:23:51;;;;;;;13.17;8.00;;;;;;;;;;5998195;29;20320;-67
2023/12/09 08:26:55;;;;;;;10.60;8.13;;;;;;;;;;5998525;29;20594;-67
2023/12/09 08:29:59;;;;;;;15.17;8.27;;;;;;;;;;5997748;29;20301;-67
2023/12/09 08:33:04;;;;;;;13.23;7.73;;;;;;;;;;5997993;29;20325;-67
2023/12/09 08:36:09;;;;;;;13.03;7.87;;;;;;;;;;5998364;29;20309;-68
2023/12/09 08:39:14;;;;;;;12.43;8.00;;;;;;;;;;5997784;29;20298;-68
2023/12/09 08:42:18;;;;;;;10.10;7.20;;;;;;;;;;5998306;29;20308;-70
2023/12/09 08:45:22;;;;;;;10.37;7.60;;;;;;;;;;6016178;29;20297;-69
2023/12/09 08:48:27;;;;;;;10.80;7.13;;;;;;;;;;6020460;29;20317;-68
2023/12/09 08:51:31;;;;;;;12.83;6.53;;;;;;;;;;6020917;29;20305;-68
2023/12/09 08:54:35;;;;;;;10.77;6.67;;;;;;;;;;6020381;29;20582;-68
2023/12/09 08:57:39;;;;;;;9.60;6.50;;;;;;;;;;6020232;29;20297;-68
2023/12/09 09:00:43;;;;;;;9.10;6.37;;;;;;;;;;6020564;29;20294;-68
2023/12/09 09:03:49;;;;;;;9.77;5.73;;;;;;;;;;6019923;29;20296;-68
2023/12/09 09:06:52;;;;;;;7.53;5.90;;;;;;;;;;6020548;29;20317;-68
2023/12/09 09:09:56;;;;;;;6.17;5.57;;;;;;;;;;6015869;29;20321;-68
2023/12/09 09:13:00;;;;;;;5.93;5.13;;;;;;;;;;5999279;29;20306;-68
2023/12/09 09:16:04;;;;;;;5.97;4.60;;;;;;;;;;6016363;29;20307;-68
2023/12/09 09:19:09;;;;;;;4.97;4.57;;;;;;;;;;6001417;29;20297;-68
2023/12/09 09:22:13;;;;;;;6.27;4.27;;;;;;;;;;6001633;29;20320;-68
2023/12/09 09:25:17;;;;;;;4.00;3.80;;;;;;;;;;6001735;29;20297;-69
2023/12/09 09:28:21;;;;;;;3.93;3.73;;;;;;;;;;6001266;29;20325;-68
2023/12/09 09:31:25;;;;;;;4.67;4.23;;;;;;;;;;6001799;29;20586;-68
2023/12/09 09:34:30;;;;;;;7.03;4.00;;;;;;;;;;6001328;29;20310;-69
2023/12/09 09:37:34;;;;;;;3.87;3.57;;;;;;;;;;6001329;29;20299;-68
2023/12/09 09:40:38;;;;;;;4.10;3.80;;;;;;;;;;6001555;29;20301;-67
2023/12/09 09:43:47;;;;;;;3.60;3.33;;;;;;;;;;6005930;29;20306;-68
2023/12/09 09:46:52;;;;;;;3.67;3.37;;;;;;;;;;6024092;29;20298;-68
2023/12/09 09:49:58;;;;;;;3.37;3.27;;;;;;;;;;6023305;29;20305;-68
2023/12/09 09:53:03;;;;;;;3.60;3.30;;;;;;;;;;6023732;29;20305;-67
2023/12/09 09:56:08;;;;;;;3.20;3.07;;;;;;;;;;6037837;29;20307;-68
2023/12/09 09:59:13;;;;;;;3.73;3.43;;;;;;;;;;6023426;29;20479;-68
2023/12/09 10:02:19;;;;;;;3.50;3.30;;;;;;;;;;6023686;29;20300;-68
2023/12/09 10:05:25;;;;;;;4.77;3.40;;;;;;;;;;6023418;29;20305;-68
2023/12/09 10:08:29;;;;;;;3.40;3.20;;;;;;;;;;6022858;29;20551;-68
2023/12/09 10:11:33;;;;;;;3.13;3.00;;;;;;;;;;6007245;29;20305;-68
2023/12/09 10:14:37;;;;;;;3.37;3.17;;;;;;;;;;6000304;29;20296;-68
2023/12/09 10:17:41;;;;;;;3.33;3.13;;;;;;;;;;6000460;29;20314;-68
2023/12/09 10:20:46;;;;;;;3.40;3.20;;;;;;;;;;6000480;29;20313;-68
2023/12/09 10:23:53;;;;;;;3.13;2.90;;;;;;;;;;5999837;29;20304;-68
2023/12/09 10:26:57;;;;;;;3.03;2.93;;;;;;;;;;6000824;29;20388;-68
2023/12/09 10:30:02;;;;;;;2.90;2.80;;;;;;;;;;6000314;29;20310;-68
2023/12/09 10:33:06;;;;;;;3.00;2.77;;;;;;;;;;5999729;29;20302;-68
2023/12/09 10:36:12;;;;;;;2.73;2.63;;;;;;;;;;6000108;29;20300;-67
2023/12/09 10:39:19;;;;;;;2.87;2.77;;;;;;;;;;5999613;29;20293;-67
2023/12/09 10:42:24;;;;;;;2.67;2.57;;;;;;;;;;5999966;29;20321;-67
2023/12/09 10:45:29;;;;;;;3.43;2.60;;;;;;;;;;6018514;29;20311;-67
2023/12/09 10:48:33;;;;;;;2.93;2.83;;;;;;;;;;6022539;29;20569;-66
2023/12/09 10:51:38;;;;;;;2.60;2.50;;;;;;;;;;6000133;29;20305;-67
2023/12/09 10:54:42;;;;;;;3.07;2.70;;;;;;;;;;6014543;29;20309;-68
2023/12/09 10:57:48;;;;;;;2.83;2.73;;;;;;;;;;6018755;29;20301;-68
2023/12/09 11:00:52;;;;;;;2.50;2.40;;;;;;;;;;6022454;29;20309;-67
2023/12/09 11:03:56;;;;;;;2.50;2.50;;;;;;;;;;6020115;29;20296;-67
2023/12/09 11:07:05;;;;;;;3.10;2.90;;;;;;;;;;6000266;29;20310;-67
2023/12/09 11:10:11;;;;;;;3.10;2.90;;;;;;;;;;6005421;29;20305;-67
2023/12/09 11:13:15;;;;;;;3.13;2.93;;;;;;;;;;6022418;29;20343;-68
2023/12/09 11:16:20;;;;;;;2.83;2.73;;;;;;;;;;6022343;29;20300;-67
2023/12/09 11:19:26;;;;;;;3.30;3.10;;;;;;;;;;6021407;29;20609;-67
2023/12/09 11:22:32;;;;;;;2.87;2.77;;;;;;;;;;6021184;29;20309;-67
2023/12/09 11:25:39;;;;;;;3.33;3.13;;;;;;;;;;6022373;29;20370;-67
2023/12/09 11:28:57;;;;;;;3.50;3.20;;;;;;;;;;6021704;29;20347;-67
2023/12/09 11:32:01;;;;;;;3.40;3.20;;;;;;;;;;6020444;29;20489;-68
2023/12/09 11:35:06;;;;;;;3.27;3.17;;;;;;;;;;6020372;29;20300;-67
2023/12/09 11:38:12;;;;;;;3.40;3.20;;;;;;;;;;6021617;29;20301;-67
2023/12/09 11:41:16;;;;;;;3.57;3.37;;;;;;;;;;6021587;29;20308;-68
2023/12/09 11:44:20;;;;;;;3.10;3.00;;;;;;;;;;6021091;29;20309;-69
2023/12/09 11:47:24;;;;;;;3.67;3.47;;;;;;;;;;6021460;29;20336;-69
2023/12/09 11:50:29;;;;;;;3.30;3.13;;;;;;;;;;6010229;29;20302;-67
2023/12/09 11:53:34;;;;;;;2.50;2.40;;;;;;;;;;5998896;29;20305;-68
2023/12/09 11:56:40;;;;;;;2.80;2.70;;;;;;;;;;6006205;29;20304;-66
2023/12/09 11:59:43;;;;;;;2.73;2.63;;;;;;;;;;6020035;29;20592;-67
2023/12/09 12:02:48;;;;;;;3.87;3.07;;;;;;;;;;6020834;29;20300;-68
2023/12/09 12:05:52;;;;;;;3.10;2.90;;;;;;;;;;6021077;29;20337;-68
2023/12/09 12:08:58;;;;;;;3.03;2.93;;;;;;;;;;6021082;29;20400;-68
2023/12/09 12:12:02;;;;;;;3.40;3.20;;;;;;;;;;6000732;29;20397;-68
2023/12/09 12:15:07;;;;;;;3.00;2.90;;;;;;;;;;5998491;29;20329;-66
2023/12/09 12:18:11;;;;;;;3.00;2.80;;;;;;;;;;6010551;29;20467;-68
2023/12/09 12:21:15;;;;;;;3.37;3.17;;;;;;;;;;5998479;29;20421;-67
2023/12/09 12:24:21;;;;;;;3.60;3.20;;;;;;;;;;5998071;29;20385;-66
2023/12/09 12:27:25;;;;;;;3.73;2.90;;;;;;;;;;5998054;29;20306;-66
2023/12/09 12:30:31;;;;;;;2.57;2.47;;;;;;;;;;5998846;29;20313;-67
2023/12/09 12:33:36;;;;;;;2.90;2.80;;;;;;;;;;5998422;29;20310;-66
2023/12/09 12:36:40;;;;;;;2.87;2.80;;;;;;;;;;5998126;29;20255;-67
2023/12/09 12:39:46;;;;;;;3.20;3.03;;;;;;;;;;5997649;29;20293;-68
2023/12/09 12:42:50;;;;;;;2.80;2.70;;;;;;;;;;5997956;29;20302;-68
2023/12/09 12:45:54;;;;;;;3.17;3.03;;;;;;;;;;5998879;29;20308;-68
2023/12/09 12:48:58;;;;;;;2.90;2.80;;;;;;;;;;6002398;29;20324;-66
2023/12/09 12:52:03;;;;;;;2.90;2.70;;;;;;;;;;6002360;29;20308;-67
2023/12/09 12:55:09;;;;;;;2.90;2.80;;;;;;;;;;6002096;29;20314;-67
2023/12/09 12:58:13;;;;;;;2.90;2.80;;;;;;;;;;6021181;29;20300;-67
2023/12/09 13:01:17;;;;;;;2.60;2.50;;;;;;;;;;6024835;29;20317;-68
2023/12/09 13:04:21;;;;;;;2.10;2.10;;;;;;;;;;6024730;29;20298;-67
2023/12/09 13:07:26;;;;;;;4.50;2.60;;;;;;;;;;6023112;29;20458;-67
2023/12/09 13:10:31;;;;;;;2.70;2.50;;;;;;;;;;6016513;29;20291;-67
2023/12/09 13:13:35;;;;;;;2.60;2.50;;;;;;;;;;6001739;29;20604;-67
2023/12/09 13:16:39;;;;;;;2.90;2.80;;;;;;;;;;6002063;29;20304;-68
2023/12/09 13:19:43;;;;;;;2.77;2.67;;;;;;;;;;6001878;29;20299;-68
2023/12/09 13:22:49;;;;;;;2.40;2.30;;;;;;;;;;6000346;29;20486;-67
2023/12/09 13:25:54;;;;;;;2.60;2.60;;;;;;;;;;6001675;29;20318;-68
2023/12/09 13:28:58;;;;;;;2.20;2.20;;;;;;;;;;6001293;29;20300;-68
2023/12/09 13:32:02;;;;;;;2.60;2.50;;;;;;;;;;6001893;29;20304;-68
2023/12/09 13:35:07;;;;;;;2.73;2.57;;;;;;;;;;5991805;29;20299;-68
2023/12/09 13:38:11;;;;;;;2.50;2.40;;;;;;;;;;6001158;29;20309;-67
2023/12/09 13:41:16;;;;;;;3.43;2.77;;;;;;;;;;6001523;29;20304;-69
2023/12/09 13:44:20;;;;;;;2.73;2.63;;;;;;;;;;6001024;29;20689;-68
2023/12/09 13:47:24;;;;;;;2.50;2.40;;;;;;;;;;6001345;29;20306;-68
2023/12/09 13:50:28;;;;;;;2.57;2.47;;;;;;;;;;6001671;29;20289;-68
2023/12/09 13:53:32;;;;;;;2.40;2.30;;;;;;;;;;6001156;29;20316;-68
2023/12/09 13:56:37;;;;;;;2.70;2.60;;;;;;;;;;6008065;29;20300;-68
2023/12/09 13:59:43;;;;;;;2.60;2.50;;;;;;;;;;6022248;29;20301;-68
2023/12/09 14:02:47;;;;;;;2.83;2.73;;;;;;;;;;6022875;29;20303;-67
2023/12/09 14:05:51;;;;;;;2.60;2.50;;;;;;;;;;6023441;29;20392;-66
2023/12/09 14:08:55;;;;;;;3.07;2.87;;;;;;;;;;6023351;29;20396;-66
2023/12/09 14:12:01;;;;;;;3.10;2.90;;;;;;;;;;6004133;29;20302;-68
2023/12/09 14:15:07;;;;;;;3.20;3.00;;;;;;;;;;6000319;29;20293;-66
2023/12/09 14:18:11;;;;;;;2.63;2.53;;;;;;;;;;6000065;29;20310;-67
2023/12/09 14:21:15;;;;;;;2.50;2.40;;;;;;;;;;6000797;29;20309;-67
2023/12/09 14:24:20;;;;;;;2.93;2.73;;;;;;;;;;5999965;29;20329;-65
2023/12/09 14:27:25;;;;;;;2.37;2.33;;;;;;;;;;5999975;29;20309;-67
2023/12/09 14:30:30;;;;;;;2.63;2.60;;;;;;;;;;6018351;29;20284;-65
2023/12/09 14:33:37;;;;;;;2.47;2.37;;;;;;;;;;6023158;29;20454;-65
2023/12/09 14:36:42;;;;;;;2.60;2.50;;;;;;;;;;6010613;29;20549;-65
2023/12/09 14:39:46;;;;;;;2.70;2.50;;;;;;;;;;5999696;29;20301;-67
2023/12/09 14:42:52;;;;;;;2.43;2.40;;;;;;;;;;5999493;29;20321;-67
2023/12/09 14:45:56;;;;;;;3.33;2.70;;;;;;;;;;6000292;29;20592;-67
2023/12/09 14:49:00;;;;;;;2.60;2.50;;;;;;;;;;5999671;29;20554;-67
2023/12/09 14:52:04;;;;;;;2.23;2.23;;;;;;;;;;5999884;29;20316;-67
2023/12/09 14:55:09;;;;;;;2.43;2.33;;;;;;;;;;5999567;29;20357;-67
2023/12/09 14:58:15;;;;;;;2.83;2.70;;;;;;;;;;6021466;29;20308;-67
2023/12/09 15:01:19;;;;;;;2.50;2.40;;;;;;;;;;6021822;29;20333;-67
2023/12/09 15:04:22;;;;;;;2.47;2.37;;;;;;;;;;6021540;29;20304;-67
2023/12/09 15:07:26;;;;;;;2.87;2.77;;;;;;;;;;6021490;29;20309;-67
2023/12/09 15:10:30;;;;;;;3.53;2.37;;;;;;;;;;6013101;29;20303;-67
2023/12/09 15:13:36;;;;;;;3.00;2.80;;;;;;;;;;5999521;29;20304;-67
2023/12/09 15:16:40;;;;;;;2.80;2.60;;;;;;;;;;5999270;29;20308;-68
2023/12/09 15:19:44;;;;;;;2.50;2.40;;;;;;;;;;5998694;29;20293;-68
2023/12/09 15:22:47;;;;;;;3.07;2.87;;;;;;;;;;5998568;29;20297;-68
2023/12/09 15:25:53;;;;;;;3.00;2.70;;;;;;;;;;5999796;29;20293;-69
2023/12/09 15:28:58;;;;;;;2.80;2.70;;;;;;;;;;5999180;29;20300;-67
2023/12/09 15:32:02;;;;;;;3.70;2.87;;;;;;;;;;5999359;29;20302;-67
2023/12/09 15:35:06;;;;;;;3.00;2.90;;;;;;;;;;5999257;29;20312;-68
2023/12/09 15:38:11;;;;;;;3.70;3.50;;;;;;;;;;5998547;29;20314;-67
2023/12/09 15:41:15;;;;;;;3.23;3.10;;;;;;;;;;5999614;29;20300;-67
2023/12/09 15:44:20;;;;;;;3.13;2.93;;;;;;;;;;5998518;29;20305;-67
2023/12/09 15:47:24;;;;;;;3.30;3.20;;;;;;;;;;5998180;29;20313;-68
2023/12/09 15:50:28;;;;;;;4.00;3.60;;;;;;;;;;5999088;29;20574;-67
2023/12/09 15:53:36;;;;;;;4.00;3.60;;;;;;;;;;5998332;29;20478;-67
2023/12/09 15:56:40;;;;;;;4.17;3.87;;;;;;;;;;6006250;29;20480;-67
2023/12/09 15:59:46;;;;;;;4.27;3.87;;;;;;;;;;6020488;29;20295;-68
2023/12/09 16:02:50;;;;;;;4.00;3.70;;;;;;;;;;6020148;29;20294;-67
2023/12/09 16:05:55;;;;;;;4.13;3.80;;;;;;;;;;6020661;29;20312;-68
2023/12/09 16:08:58;;;;;;;4.13;3.83;;;;;;;;;;6020859;29;20372;-67
2023/12/09 16:12:02;;;;;;;3.90;3.60;;;;;;;;;;6001481;29;20302;-66
2023/12/09 16:15:08;;;;;;;4.10;3.80;;;;;;;;;;5998708;29;20343;-67
2023/12/09 16:18:13;;;;;;;5.10;4.00;;;;;;;;;;5997992;29;20298;-67
2023/12/09 16:21:17;;;;;;;4.37;3.97;;;;;;;;;;5997460;29;20293;-67
2023/12/09 16:24:26;;;;;;;3.47;3.20;;;;;;;;;;5997912;29;20496;-67
2023/12/09 16:27:31;;;;;;;3.57;3.27;;;;;;;;;;5997840;29;20298;-67
2023/12/09 16:30:37;;;;;;;3.47;3.23;;;;;;;;;;5998078;29;20300;-68
2023/12/09 16:33:41;;;;;;;2.83;2.73;;;;;;;;;;5997705;29;20487;-67
2023/12/09 16:36:45;;;;;;;3.20;2.90;;;;;;;;;;5998144;29;20296;-67
2023/12/09 16:39:49;;;;;;;3.07;2.97;;;;;;;;;;5997625;29;20309;-68
2023/12/09 16:42:53;;;;;;;3.53;3.00;;;;;;;;;;5997902;29;20301;-67
2023/12/09 16:45:59;;;;;;;2.50;2.50;;;;;;;;;;5998488;29;20297;-67
2023/12/09 16:49:03;;;;;;;3.03;2.80;;;;;;;;;;5997664;29;20314;-67
2023/12/09 16:52:07;;;;;;;3.00;2.80;;;;;;;;;;5997905;29;20312;-67
2023/12/09 16:55:11;;;;;;;3.13;2.67;;;;;;;;;;5997770;29;20617;-68
2023/12/09 16:58:16;;;;;;;5.53;3.13;;;;;;;;;;6016297;29;20303;-68
2023/12/09 17:01:21;;;;;;;3.03;2.83;;;;;;;;;;6020484;29;20308;-69
2023/12/09 17:04:25;;;;;;;2.17;2.13;;;;;;;;;;6020022;29;20309;-69
2023/12/09 17:07:30;;;;;;;3.50;3.30;;;;;;;;;;6018379;29;20690;-68
2023/12/09 17:10:34;;;;;;;3.00;2.80;;;;;;;;;;6011804;29;20468;-68
2023/12/09 17:13:37;;;;;;;3.10;2.90;;;;;;;;;;5996006;29;20317;-67
2023/12/09 17:16:45;;;;;;;2.53;2.43;;;;;;;;;;5996535;29;20585;-69
2023/12/09 17:19:49;;;;;;;3.20;3.10;;;;;;;;;;5996927;29;20401;-71
2023/12/09 17:22:53;;;;;;;3.13;2.90;;;;;;;;;;6001275;29;20596;-69
2023/12/09 17:25:57;;;;;;;3.10;2.90;;;;;;;;;;5997887;29;20312;-69
2023/12/09 17:29:01;;;;;;;3.20;3.10;;;;;;;;;;5997387;29;20309;-69
2023/12/09 17:32:07;;;;;;;3.53;2.63;;;;;;;;;;5997811;29;20318;-69
2023/12/09 17:35:11;;;;;;;2.67;2.67;;;;;;;;;;6000933;29;20302;-68
2023/12/09 17:38:14;;;;;;;3.30;3.07;;;;;;;;;;6001036;29;20478;-69
2023/12/09 17:41:19;;;;;;;3.03;2.93;;;;;;;;;;6001910;29;20302;-69
2023/12/09 17:44:23;;;;;;;2.83;2.73;;;;;;;;;;6000974;29;20291;-70
2023/12/09 17:47:28;;;;;;;3.30;3.07;;;;;;;;;;6001067;29;20302;-68
2023/12/09 17:50:32;;;;;;;3.23;3.13;;;;;;;;;;6001481;29;20593;-68
2023/12/09 17:53:36;;;;;;;3.97;2.77;;;;;;;;;;6000536;29;20304;-69
2023/12/09 17:56:41;;;;;;;2.97;2.83;;;;;;;;;;6008588;29;20585;-69
2023/12/09 17:59:46;;;;;;;3.10;2.90;;;;;;;;;;6022208;29;20586;-69
2023/12/09 18:02:52;;;;;;;3.30;3.10;;;;;;;;;;6023234;29;20329;-69
2023/12/09 18:05:56;;;;;;;4.20;3.13;;;;;;;;;;6024334;29;20311;-69
2023/12/09 18:09:00;;;;;;;2.83;2.73;;;;;;;;;;6023416;29;20306;-68
2023/12/09 18:12:04;;;;;;;3.00;2.90;;;;;;;;;;6003691;29;20344;-68
2023/12/09 18:15:08;;;;;;;3.30;3.10;;;;;;;;;;6000805;29;20305;-69
2023/12/09 18:18:14;;;;;;;3.37;3.07;;;;;;;;;;6014695;29;20292;-69
2023/12/09 18:21:18;;;;;;;3.17;3.07;;;;;;;;;;6000871;29;20781;-69